This is the latest recevied weather packets stored in our database for station/object OH2MUI. If no packets are shown the sender has not sent any weather packets the latest 10 day(s).
| Time | Temp. | Humidity | Pressure | Rain* | Wind** | Luminosity | Snow |
|---|---|---|---|---|---|---|---|
| 1778220640 | 7.22° C | - | - | 0 mm | - | - | - |
| 1778220637 | 7.22° C | 68% | 1027.4 hPa | 0 mm | - | - | - |
| 1778219609 | 5.56° C | 74% | 1027.2 hPa | 0 mm | - | - | - |
| 1778218624 | 3.89° C | 80% | 1026.9 hPa | 0 mm | - | - | - |
| 1778217452 | 2.78° C | 81% | 1026.8 hPa | 0 mm | - | - | - |
| 1778216316 | 2.78° C | 81% | 1026.8 hPa | 0 mm | - | - | - |
| 1778214049 | 1.11° C | 83% | 1026.5 hPa | 0 mm | - | - | - |
| 1778213019 | 1.11° C | 83% | 1026.2 hPa | 0 mm | - | - | - |
| 1778211914 | 0.56° C | 84% | 1026 hPa | 0 mm | - | - | - |
| 1778210824 | 0.56° C | 84% | 1025.9 hPa | 0 mm | - | - | - |
| 1778209709 | 0.56° C | 85% | 1025.7 hPa | 0 mm | - | - | - |
| 1778208544 | 0.56° C | 86% | 1025.5 hPa | 0 mm | - | - | - |
| 1778207584 | 0.56° C | 82% | 1025.2 hPa | 0 mm | - | - | - |
| 1778207579 | 0.56° C | 82% | 1025.2 hPa | 0 mm | - | - | - |
| 1778206529 | 0.56° C | 82% | 1025 hPa | 0 mm | - | - | - |
| 1778205354 | 1.11° C | 80% | 1024.8 hPa | 0 mm | - | - | - |
| 1778204268 | 1.11° C | 79% | 1024.7 hPa | 0 mm | - | - | - |
| 1778203244 | 1.67° C | 76% | 1024.4 hPa | 0 mm | - | - | - |
| 1778202284 | 1.67° C | 76% | 1024.3 hPa | 0 mm | - | - | - |
| 1778201149 | 1.67° C | 77% | 1024.1 hPa | 0 mm | - | - | - |
| 1778200095 | -17.78° C | 76% | 1023.9 hPa | - | - | - | - |
| 1778200089 | 1.67° C | 76% | 1023.9 hPa | 0 mm | - | - | - |
| 1778199124 | 1.67° C | 76% | 1023.6 hPa | 0 mm | - | - | - |
| 1778198014 | 2.22° C | 74% | 1023.4 hPa | 0 mm | - | - | - |
| 1778196839 | 3.33° C | 71% | 1023.1 hPa | 0 mm | - | - | - |
* Rain latest hour (hover to see other rain measurements)
** Current wind speed in m/s (hover to see current wind gust speed)